createdAt,value
2019-03-05T09:02:58.264Z,70
2019-03-05T09:03:30.235Z,65
2019-03-05T09:04:02.204Z,65
2019-03-05T09:04:34.219Z,55
2019-03-05T09:05:06.179Z,50
2019-03-05T09:06:57.568Z,45
2019-03-05T09:07:29.549Z,40
2019-03-05T09:08:01.506Z,35
2019-03-05T09:08:33.475Z,35
2019-03-05T09:09:05.493Z,35
2019-03-05T09:09:37.549Z,45
2019-03-05T09:10:09.519Z,50
2019-03-05T09:10:41.502Z,50
2019-03-05T09:11:13.458Z,55
2019-03-05T09:11:45.486Z,65
2019-03-05T09:12:17.462Z,70
2019-03-05T09:12:49.424Z,70
2019-03-05T09:13:33.703Z,70
2019-03-05T09:14:05.659Z,65
2019-03-05T09:15:57.151Z,60
2019-03-05T09:16:29.242Z,65
2019-03-05T09:17:01.213Z,70
2019-03-05T09:17:33.201Z,75
2019-03-05T09:18:05.217Z,80
2019-03-05T09:18:37.279Z,80
2019-03-05T09:19:09.259Z,80
2019-03-05T09:21:00.507Z,95
2019-03-05T09:21:32.509Z,90
2019-03-05T09:22:04.475Z,85
2019-03-05T09:23:55.974Z,90
2019-03-05T09:24:28.880Z,95
2019-03-05T09:25:00.930Z,100
2019-03-05T09:25:32.898Z,100
2019-03-05T09:27:24.108Z,65
2019-03-05T09:27:57.889Z,55
2019-03-05T09:28:29.919Z,50
2019-03-05T09:30:21.628Z,60
2019-03-05T09:30:53.595Z,50
2019-03-05T09:31:25.915Z,50
2019-03-05T09:31:57.902Z,50
2019-03-05T09:32:29.880Z,55
2019-03-05T09:33:01.904Z,65
2019-03-05T09:34:53.421Z,110
2019-03-05T09:35:25.400Z,120
2019-03-05T09:37:16.914Z,125
2019-03-05T09:37:48.901Z,125
2019-03-05T09:38:20.870Z,120
2019-03-05T09:38:52.951Z,115
2019-03-05T09:39:25.175Z,115
2019-03-05T09:39:57.145Z,115
2019-03-05T09:40:29.127Z,95
2019-03-05T09:41:01.088Z,95
2019-03-05T09:41:33.693Z,95
2019-03-05T09:44:44.822Z,160
2019-03-05T09:46:36.212Z,165
2019-03-05T09:47:08.387Z,180
2019-03-05T09:47:40.469Z,185
2019-03-05T09:48:12.433Z,155
2019-03-05T09:48:45.228Z,150
2019-03-05T09:49:17.851Z,135
2019-03-05T09:49:49.896Z,110
2019-03-05T09:50:22.117Z,110
2019-03-05T09:52:13.616Z,160
2019-03-05T09:52:56.664Z,125
2019-03-05T09:53:28.592Z,125
2019-03-05T09:54:00.565Z,115
2019-03-05T09:55:52.018Z,95
2019-03-05T09:56:24.001Z,85
2019-03-05T09:56:55.961Z,80
2019-03-05T09:57:29.125Z,85
2019-03-05T09:58:10.088Z,85
2019-03-05T09:58:42.079Z,95
2019-03-05T09:59:14.106Z,110
2019-03-05T09:59:46.071Z,115
2019-03-05T10:00:18.062Z,95
2019-03-05T10:00:50.064Z,95
2019-03-05T10:01:22.044Z,95
2019-03-05T10:01:54.064Z,110
2019-03-05T10:03:45.864Z,90
2019-03-05T10:04:18.237Z,85
2019-03-05T10:04:50.210Z,95
2019-03-05T10:05:22.306Z,140
2019-03-05T10:07:19.575Z,120
2019-03-05T10:09:10.985Z,125
2019-03-05T10:09:42.963Z,130
2019-03-05T10:11:34.623Z,125
2019-03-05T10:12:06.634Z,115
2019-03-05T10:12:38.603Z,110
2019-03-05T10:13:13.043Z,115
2019-03-05T10:15:04.527Z,135
2019-03-05T10:15:36.520Z,135
2019-03-05T10:16:08.516Z,140
2019-03-05T10:17:59.737Z,120
2019-03-05T10:18:31.698Z,120
2019-03-05T10:19:05.427Z,140
2019-03-05T10:19:40.094Z,130
2019-03-05T10:20:12.093Z,130
2019-03-05T10:20:44.072Z,125
2019-03-05T10:22:35.634Z,100
2019-03-05T10:24:26.856Z,95
2019-03-05T10:25:07.754Z,95
2019-03-05T10:25:39.714Z,90
2019-03-05T10:26:12.344Z,90
2019-03-05T10:26:44.345Z,90
2019-03-05T10:27:16.342Z,90
2019-03-05T10:27:48.338Z,90
2019-03-05T10:28:20.300Z,95
2019-03-05T10:28:52.274Z,85
2019-03-05T10:29:24.264Z,85
2019-03-05T10:29:56.211Z,80
2019-03-05T10:33:07.055Z,95
2019-03-05T10:33:39.062Z,105
2019-03-05T10:34:11.059Z,105
2019-03-05T10:34:43.025Z,110
2019-03-05T10:35:15.027Z,115
2019-03-05T10:35:47.000Z,120
2019-03-05T10:36:18.980Z,115
2019-03-05T10:36:51.089Z,115
2019-03-05T10:37:23.079Z,110
2019-03-05T10:37:55.050Z,105
2019-03-05T10:38:27.036Z,115
2019-03-05T10:40:19.146Z,185
2019-03-05T10:40:51.112Z,150
2019-03-05T10:41:23.075Z,125
2019-03-05T10:41:55.101Z,195
2019-03-05T10:43:46.481Z,130
2019-03-05T10:44:18.449Z,185
2019-03-05T10:44:50.417Z,105
2019-03-05T10:45:22.393Z,105
2019-03-05T10:47:14.071Z,120
2019-03-05T10:47:46.025Z,130
2019-03-05T10:48:18.045Z,155
2019-03-05T10:48:50.020Z,165
2019-03-05T10:50:41.240Z,140
2019-03-05T10:51:13.226Z,135
2019-03-05T10:51:45.212Z,145
2019-03-05T10:52:17.181Z,160
2019-03-05T10:54:08.582Z,195
2019-03-05T10:54:40.589Z,185
2019-03-05T10:55:12.564Z,175
2019-03-05T10:55:44.521Z,170
2019-03-05T10:56:16.503Z,175
2019-03-05T10:58:07.876Z,180
2019-03-05T10:59:59.364Z,150
2019-03-05T11:00:31.328Z,135
2019-03-05T11:01:03.311Z,125
2019-03-05T11:01:35.325Z,110
2019-03-05T11:02:07.311Z,100
2019-03-05T11:02:39.287Z,105
2019-03-05T11:03:11.162Z,105
2019-03-05T11:03:43.111Z,100
2019-03-05T11:04:15.091Z,90
2019-03-05T11:04:47.709Z,80
2019-03-05T11:05:19.665Z,70
2019-03-05T11:07:11.273Z,65
2019-03-05T11:07:43.242Z,65
2019-03-05T11:08:15.211Z,60
2019-03-05T11:08:47.188Z,60
2019-03-05T11:09:19.170Z,60
2019-03-05T11:09:51.159Z,60
2019-03-05T11:10:23.131Z,55
2019-03-05T11:10:55.122Z,50
2019-03-05T11:11:27.300Z,50
2019-03-05T11:11:59.322Z,50
2019-03-05T11:12:31.421Z,55
2019-03-05T11:13:03.515Z,60
2019-03-05T11:13:36.437Z,65
2019-03-05T11:15:27.879Z,90
2019-03-05T11:15:59.862Z,80
2019-03-05T11:16:32.860Z,75
2019-03-05T11:17:04.847Z,75
2019-03-05T11:17:36.824Z,80
2019-03-05T11:18:08.815Z,80
2019-03-05T11:18:40.799Z,75
2019-03-05T11:19:12.860Z,75
2019-03-05T11:19:44.841Z,75
2019-03-05T11:20:16.788Z,75
2019-03-05T11:20:48.753Z,80
2019-03-05T11:21:20.742Z,75
2019-03-05T11:21:52.715Z,75
2019-03-05T11:22:24.702Z,70
2019-03-05T11:22:56.655Z,65
2019-03-05T11:23:29.167Z,65
2019-03-05T11:24:01.333Z,60
2019-03-05T11:24:33.319Z,60
2019-03-05T11:26:24.771Z,65
2019-03-05T11:26:56.995Z,70
2019-03-05T11:27:29.165Z,70
2019-03-05T11:28:01.262Z,65
2019-03-05T11:29:52.885Z,65
2019-03-05T11:33:03.788Z,70
2019-03-05T11:33:35.768Z,65
2019-03-05T11:34:07.749Z,65
2019-03-05T11:34:39.750Z,65
2019-03-05T11:35:11.725Z,70
2019-03-05T11:35:43.696Z,80
2019-03-05T11:36:15.681Z,85
2019-03-05T11:36:47.644Z,85
2019-03-05T11:38:38.898Z,85
2019-03-05T11:39:10.872Z,85
2019-03-05T11:39:43.408Z,90
2019-03-05T11:40:22.795Z,95
2019-03-05T11:40:54.796Z,100
2019-03-05T11:41:26.788Z,100
2019-03-05T11:41:58.765Z,100
2019-03-05T11:42:30.742Z,100
2019-03-05T11:43:02.718Z,105
2019-03-05T11:43:34.692Z,115
2019-03-05T11:44:07.355Z,120
2019-03-05T11:44:39.336Z,130
2019-03-05T11:45:13.341Z,140
2019-03-05T11:45:45.541Z,150
2019-03-05T11:46:17.547Z,150
2019-03-05T11:46:49.509Z,145
2019-03-05T11:47:21.491Z,145
2019-03-05T11:47:53.472Z,145
2019-03-05T11:48:25.458Z,145
2019-03-05T11:48:57.443Z,145
2019-03-05T11:49:29.407Z,145
2019-03-05T11:50:01.484Z,150
2019-03-05T11:50:33.440Z,150
2019-03-05T11:51:05.406Z,150
2019-03-05T11:51:37.372Z,145
2019-03-05T11:52:09.341Z,140
2019-03-05T11:52:41.304Z,130
2019-03-05T11:53:13.298Z,120
2019-03-05T11:53:45.277Z,115
2019-03-05T11:54:17.270Z,110
2019-03-05T11:54:49.310Z,110
2019-03-05T11:56:40.770Z,115
2019-03-05T11:57:12.729Z,115
2019-03-05T11:57:44.736Z,115
2019-03-05T11:58:16.710Z,125
2019-03-05T12:00:08.401Z,170
2019-03-05T12:00:40.343Z,185
2019-03-05T12:02:31.901Z,205
2019-03-05T12:04:23.469Z,250
2019-03-05T12:04:55.461Z,265
2019-03-05T12:05:27.452Z,310
2019-03-05T12:05:59.582Z,395
2019-03-05T12:06:31.547Z,435
2019-03-05T12:07:03.552Z,315
2019-03-05T12:07:35.939Z,420
2019-03-05T12:08:07.923Z,395
2019-03-05T12:08:39.905Z,390
2019-03-05T12:09:11.852Z,485
2019-03-05T12:09:43.833Z,310
2019-03-05T12:10:15.767Z,340
2019-03-05T12:10:47.743Z,530
2019-03-05T12:11:19.923Z,550
2019-03-05T12:11:51.905Z,470
2019-03-05T12:12:23.873Z,425
2019-03-05T12:12:55.843Z,405
2019-03-05T12:13:27.831Z,340
2019-03-05T12:13:59.792Z,340
2019-03-05T12:14:31.768Z,375
2019-03-05T12:15:04.095Z,285
2019-03-05T12:15:36.089Z,345
2019-03-05T12:16:08.052Z,310
2019-03-05T12:16:42.773Z,300
2019-03-05T12:18:34.413Z,180
2019-03-05T12:19:06.418Z,180
2019-03-05T12:19:38.703Z,175
2019-03-05T12:21:30.115Z,155
2019-03-05T12:22:02.190Z,160
2019-03-05T12:22:34.205Z,160
2019-03-05T12:23:12.794Z,160
2019-03-05T12:23:49.647Z,470
2019-03-05T12:24:26.936Z,300
2019-03-05T12:25:04.743Z,130
2019-03-05T12:25:42.062Z,370
2019-03-05T12:26:14.059Z,105
2019-03-05T12:26:46.056Z,90
2019-03-05T12:27:18.030Z,90
2019-03-05T12:27:49.995Z,95
2019-03-05T12:28:22.452Z,100
2019-03-05T12:29:19.953Z,85
2019-03-05T12:29:51.919Z,85
2019-03-05T12:30:23.874Z,100
2019-03-05T12:30:56.554Z,115
2019-03-05T12:31:28.522Z,130
2019-03-05T12:32:00.516Z,145
2019-03-05T12:32:33.613Z,155
2019-03-05T12:33:08.176Z,155
2019-03-05T12:33:40.126Z,155
2019-03-05T12:34:12.544Z,145
2019-03-05T12:34:44.502Z,130
2019-03-05T12:35:16.460Z,120
2019-03-05T12:35:48.443Z,140
2019-03-05T12:36:20.512Z,165
2019-03-05T12:36:52.463Z,170
2019-03-05T12:37:27.402Z,140
2019-03-05T12:38:02.706Z,145
2019-03-05T12:38:36.140Z,135
2019-03-05T12:39:08.108Z,135
2019-03-05T12:39:40.083Z,130
2019-03-05T12:40:12.062Z,115
2019-03-05T12:42:03.795Z,70
2019-03-05T12:42:35.855Z,65
2019-03-05T12:45:47.222Z,170
2019-03-05T12:47:38.609Z,215
2019-03-05T12:48:10.784Z,185
2019-03-05T12:48:42.807Z,130
2019-03-05T12:49:17.408Z,115
2019-03-05T12:49:49.346Z,100
2019-03-05T12:50:21.334Z,80
2019-03-05T12:50:53.283Z,65
2019-03-05T12:51:25.262Z,60
2019-03-05T12:51:57.227Z,55
2019-03-05T12:52:29.201Z,60
2019-03-05T12:53:01.248Z,70
2019-03-05T12:53:33.201Z,75
2019-03-05T12:54:05.183Z,75
2019-03-05T12:54:37.142Z,80
2019-03-05T12:55:09.122Z,90
2019-03-05T12:55:41.117Z,100
2019-03-05T12:56:25.255Z,100
2019-03-05T12:58:16.549Z,125
2019-03-05T12:58:48.508Z,125
2019-03-05T12:59:20.479Z,125
2019-03-05T12:59:52.519Z,120
2019-03-05T13:00:24.500Z,95
2019-03-05T13:00:56.473Z,75
2019-03-05T13:01:28.486Z,70
2019-03-05T13:02:00.473Z,65
2019-03-05T13:03:52.150Z,65
2019-03-05T13:04:24.134Z,60
2019-03-05T13:06:15.534Z,45
2019-03-05T13:06:47.524Z,45
2019-03-05T13:07:20.609Z,45
2019-03-05T13:07:58.761Z,50
2019-03-05T13:08:30.786Z,55
2019-03-05T13:09:02.772Z,70
2019-03-05T13:09:34.744Z,90
2019-03-05T13:10:06.747Z,95
2019-03-05T13:10:39.285Z,95
2019-03-05T13:12:35.875Z,180
2019-03-05T13:13:15.972Z,270
2019-03-05T13:14:12.446Z,150
2019-03-05T13:14:45.523Z,195
2019-03-05T13:15:17.506Z,275
2019-03-05T13:15:52.837Z,510
2019-03-05T13:16:28.124Z,425
2019-03-05T13:17:00.114Z,245
2019-03-05T13:17:32.080Z,95
2019-03-05T13:18:04.103Z,80
2019-03-05T13:18:36.091Z,75
2019-03-05T13:20:28.996Z,45
2019-03-05T13:21:09.263Z,45
2019-03-05T13:21:50.179Z,45
2019-03-05T13:22:30.732Z,50
2019-03-05T13:23:12.033Z,55
2019-03-05T13:23:44.006Z,65
2019-03-05T13:24:16.723Z,85
2019-03-05T13:26:12.234Z,75
2019-03-05T13:26:47.619Z,70
2019-03-05T13:27:24.608Z,70
2019-03-05T13:28:05.073Z,85
2019-03-05T13:28:42.890Z,105
2019-03-05T13:29:21.788Z,145
2019-03-05T13:31:13.128Z,165
2019-03-05T13:31:45.090Z,170
2019-03-05T13:32:46.868Z,210
2019-03-05T13:33:18.864Z,615
2019-03-05T13:33:50.835Z,280
2019-03-05T13:34:22.819Z,330
2019-03-05T13:34:54.860Z,255
2019-03-05T13:35:33.474Z,540
2019-03-05T13:36:17.061Z,335
2019-03-05T13:36:53.179Z,455
2019-03-05T13:37:30.670Z,1945
2019-03-05T13:38:10.417Z,355
2019-03-05T13:38:47.273Z,420
2019-03-05T13:39:25.004Z,235
2019-03-05T13:40:00.769Z,275
2019-03-05T13:40:41.747Z,350
2019-03-05T13:41:18.094Z,240
2019-03-05T13:41:55.836Z,275
2019-03-05T13:42:36.061Z,330
2019-03-05T13:43:08.048Z,355
2019-03-05T13:43:39.983Z,375
2019-03-05T13:44:11.973Z,1560
2019-03-05T13:44:43.961Z,1615
2019-03-05T13:45:15.959Z,470
2019-03-05T13:45:51.813Z,300
2019-03-05T13:46:31.029Z,285
2019-03-05T13:47:07.071Z,200
2019-03-05T13:47:44.240Z,765
2019-03-05T13:48:24.896Z,215
2019-03-05T13:49:00.450Z,220
2019-03-05T13:49:42.398Z,195
2019-03-05T13:50:14.393Z,220
2019-03-05T13:50:46.379Z,205
2019-03-05T13:51:25.048Z,265
2019-03-05T13:52:01.530Z,315
2019-03-05T13:52:38.305Z,225
2019-03-05T13:53:24.797Z,120
2019-03-05T13:54:12.474Z,95
2019-03-05T13:54:50.791Z,100
2019-03-05T13:55:29.102Z,140
2019-03-05T13:56:05.889Z,130
2019-03-05T13:56:45.106Z,140
2019-03-05T13:57:20.839Z,150
2019-03-05T13:57:57.295Z,305
2019-03-05T13:58:32.031Z,2055
2019-03-05T13:59:04.037Z,1965
2019-03-05T13:59:36.085Z,2030
2019-03-05T14:00:09.058Z,2065
2019-03-05T14:00:41.062Z,2030
2019-03-05T14:01:13.052Z,1990
2019-03-05T14:01:45.078Z,1900
2019-03-05T14:02:17.065Z,950
2019-03-05T14:02:54.687Z,135
2019-03-05T14:03:26.689Z,120
2019-03-05T14:03:58.692Z,110
2019-03-05T14:04:30.789Z,110
2019-03-05T14:05:02.802Z,110
2019-03-05T14:05:34.853Z,125
2019-03-05T14:06:06.821Z,545
2019-03-05T14:06:38.961Z,195
2019-03-05T14:07:10.970Z,185
2019-03-05T14:07:43.019Z,225
2019-03-05T14:08:15.098Z,1065
2019-03-05T14:08:47.162Z,1060
2019-03-05T14:09:19.220Z,515
2019-03-05T14:09:51.293Z,760
2019-03-05T14:10:25.922Z,1535
2019-03-05T14:10:58.157Z,515
2019-03-05T14:11:30.191Z,285
2019-03-05T14:12:02.245Z,215
2019-03-05T14:12:34.277Z,215
2019-03-05T14:13:06.298Z,185
2019-03-05T14:13:38.359Z,160
2019-03-05T14:14:10.388Z,145
2019-03-05T14:14:42.465Z,140
2019-03-05T14:15:14.555Z,150
2019-03-05T14:15:46.711Z,190
2019-03-05T14:16:18.733Z,350
2019-03-05T14:16:50.794Z,1625
2019-03-05T14:17:22.850Z,660
2019-03-05T14:17:54.858Z,315
2019-03-05T14:18:27.007Z,315
2019-03-05T14:18:59.057Z,445
2019-03-05T14:19:31.217Z,1730
2019-03-05T14:20:03.317Z,1785
2019-03-05T14:20:36.940Z,1740
2019-03-05T14:21:09.080Z,1365
2019-03-05T14:21:41.202Z,340
2019-03-05T14:22:13.284Z,570
2019-03-05T14:22:45.377Z,310
2019-03-05T14:23:17.460Z,280
2019-03-05T14:23:49.453Z,295
2019-03-05T14:24:21.544Z,355
2019-03-05T14:25:04.456Z,285
2019-03-05T14:25:36.542Z,245
2019-03-05T14:26:08.651Z,225
2019-03-05T14:26:40.713Z,240
2019-03-05T14:27:12.773Z,510
2019-03-05T14:27:44.824Z,1660
2019-03-05T14:28:19.463Z,1715
2019-03-05T14:28:51.797Z,1685
2019-03-05T14:29:23.864Z,1655
2019-03-05T14:29:55.993Z,1595
2019-03-05T14:30:28.156Z,1565
2019-03-05T14:31:00.205Z,1540
2019-03-05T14:31:32.297Z,1520
2019-03-05T14:32:04.374Z,1505
2019-03-05T14:32:36.431Z,1585
2019-03-05T14:33:08.533Z,610
2019-03-05T14:33:40.568Z,1525
2019-03-05T14:34:12.610Z,315
2019-03-05T14:34:44.674Z,600
2019-03-05T14:35:16.791Z,200
2019-03-05T14:35:49.347Z,160
2019-03-05T14:36:21.509Z,140
2019-03-05T14:36:53.531Z,140
2019-03-05T14:37:25.668Z,165
2019-03-05T14:37:57.779Z,175
2019-03-05T14:38:29.878Z,195
2019-03-05T14:39:02.002Z,185
2019-03-05T14:39:34.120Z,170
2019-03-05T14:40:26.228Z,205
2019-03-05T14:40:58.263Z,1365
2019-03-05T14:41:30.306Z,220
2019-03-05T14:42:02.466Z,205
2019-03-05T14:42:34.651Z,200
2019-03-05T14:43:06.716Z,185
2019-03-05T14:43:38.852Z,200
2019-03-05T14:44:10.886Z,1020
2019-03-05T14:44:42.913Z,320
2019-03-05T14:45:15.065Z,470
2019-03-05T14:45:47.161Z,350
2019-03-05T14:46:19.243Z,520
2019-03-05T14:46:51.328Z,1450
2019-03-05T14:47:23.403Z,1435
2019-03-05T14:47:55.517Z,1400
2019-03-05T14:48:27.579Z,1360
2019-03-05T14:48:59.940Z,1300
2019-03-05T14:49:32.081Z,1365
2019-03-05T14:50:04.258Z,1350
2019-03-05T14:50:36.298Z,1305
2019-03-05T14:51:08.383Z,865
2019-03-05T14:51:40.440Z,1070
2019-03-05T14:52:12.558Z,365
2019-03-05T14:52:44.709Z,1285
2019-03-05T14:53:16.746Z,255
2019-03-05T14:53:48.830Z,235
2019-03-05T14:54:23.460Z,400
2019-03-05T14:54:55.577Z,1235
2019-03-05T14:55:27.697Z,1220
2019-03-05T14:55:59.781Z,1210
2019-03-05T14:56:31.882Z,1215
2019-03-05T14:57:04.008Z,1200
2019-03-05T14:57:36.035Z,1190
2019-03-05T14:58:08.114Z,1185
2019-03-05T14:58:40.206Z,1200
2019-03-05T14:59:12.395Z,1160
2019-03-05T14:59:47.233Z,1175
2019-03-05T15:00:19.608Z,1175
2019-03-05T15:00:51.714Z,465
2019-03-05T15:01:23.826Z,200
2019-03-05T15:01:56.012Z,195
2019-03-05T15:02:28.286Z,520
2019-03-05T15:03:00.400Z,960
2019-03-05T15:03:32.590Z,1065
2019-03-05T15:04:04.701Z,1100
2019-03-05T15:04:36.823Z,1100
2019-03-05T15:05:08.893Z,1060
2019-03-05T15:05:41.021Z,830
2019-03-05T15:06:13.639Z,965
2019-03-05T15:06:45.842Z,820
2019-03-05T15:07:18.045Z,895
2019-03-05T15:07:50.175Z,865
2019-03-05T15:08:22.377Z,870
2019-03-05T15:08:54.464Z,885
2019-03-05T15:09:26.649Z,885
2019-03-05T15:09:58.801Z,885
2019-03-05T15:10:30.843Z,855
2019-03-05T15:11:02.942Z,880
2019-03-05T15:11:35.150Z,890
2019-03-05T15:12:07.354Z,865
2019-03-05T15:12:39.440Z,845
2019-03-05T15:13:21.441Z,780
2019-03-05T15:13:53.542Z,610
2019-03-05T15:14:25.670Z,415
2019-03-05T15:14:57.777Z,255
2019-03-05T15:15:29.930Z,195
2019-03-05T15:16:01.999Z,190
2019-03-05T15:16:34.090Z,190
2019-03-05T15:17:06.264Z,190
2019-03-05T15:17:38.346Z,190
2019-03-05T15:18:10.443Z,185
2019-03-05T15:18:42.638Z,180
2019-03-05T15:19:23.526Z,175
2019-03-05T15:19:55.582Z,170
2019-03-05T15:20:27.796Z,165
2019-03-05T15:20:59.872Z,160
2019-03-05T15:21:31.970Z,155
2019-03-05T15:22:04.075Z,150
2019-03-05T15:22:36.256Z,145
2019-03-05T15:23:08.343Z,145
2019-03-05T15:23:40.506Z,145
2019-03-05T15:24:12.630Z,140
2019-03-05T15:24:44.686Z,140
2019-03-05T15:25:16.762Z,135
2019-03-05T15:25:48.894Z,135
2019-03-05T15:26:20.942Z,130
2019-03-05T15:26:53.064Z,130
2019-03-05T15:27:25.201Z,130
2019-03-05T15:27:57.328Z,130
2019-03-05T15:28:29.500Z,120
2019-03-05T15:29:01.777Z,120
2019-03-05T15:29:33.872Z,125
2019-03-05T15:30:06.023Z,130
2019-03-05T15:30:38.145Z,125
2019-03-05T15:31:10.375Z,120
2019-03-05T15:31:42.464Z,110
2019-03-05T15:32:14.568Z,105
2019-03-05T15:32:46.639Z,100
2019-03-05T15:33:18.672Z,95
2019-03-05T15:33:50.866Z,90
2019-03-05T15:34:22.946Z,105
2019-03-05T15:34:55.137Z,105
2019-03-05T15:35:27.327Z,110
2019-03-05T15:35:59.484Z,100
2019-03-05T15:36:31.645Z,100
2019-03-05T15:37:03.885Z,100
2019-03-05T15:37:36.098Z,95
2019-03-05T15:38:08.247Z,90
2019-03-05T15:38:40.481Z,90
2019-03-05T15:39:12.685Z,85
2019-03-05T15:39:44.863Z,85
2019-03-05T15:40:16.949Z,85
2019-03-05T15:40:49.189Z,85
2019-03-05T15:41:21.339Z,85
2019-03-05T15:41:53.437Z,80
2019-03-05T15:42:29.207Z,80
2019-03-05T15:43:02.009Z,75
2019-03-05T15:43:34.168Z,65
2019-03-05T15:44:06.234Z,65
2019-03-05T15:44:38.476Z,70
2019-03-05T15:45:10.588Z,75
2019-03-05T15:45:42.665Z,70
2019-03-05T15:46:14.836Z,65
2019-03-05T15:46:47.100Z,65
2019-03-05T15:47:19.335Z,70
2019-03-05T15:47:51.448Z,80
2019-03-05T15:48:23.461Z,85
2019-03-05T15:48:55.606Z,95
2019-03-05T15:49:27.758Z,95
2019-03-05T15:49:59.901Z,95
2019-03-05T15:50:32.038Z,95
2019-03-05T15:51:04.187Z,95
2019-03-05T15:51:36.284Z,95
2019-03-05T15:52:08.485Z,105
2019-03-05T15:52:40.574Z,110
2019-03-05T15:53:12.684Z,110
2019-03-05T15:54:17.740Z,110
2019-03-05T15:54:49.729Z,115
2019-03-05T15:55:21.756Z,115
2019-03-05T15:55:53.753Z,110
2019-03-05T15:56:25.737Z,105
2019-03-05T15:56:57.720Z,100
2019-03-05T15:57:29.721Z,95
2019-03-05T15:58:01.781Z,90
2019-03-05T15:58:33.770Z,90
2019-03-05T15:59:05.744Z,90
2019-03-05T15:59:38.278Z,95
2019-03-05T16:00:10.299Z,95
2019-03-05T16:00:42.287Z,95
2019-03-05T16:01:24.205Z,95
2019-03-05T16:01:56.194Z,95
2019-03-05T16:02:28.156Z,90
2019-03-05T16:03:00.162Z,90
2019-03-05T16:03:32.158Z,90
2019-03-05T16:04:04.172Z,90
2019-03-05T16:04:44.619Z,95
2019-03-05T16:05:22.986Z,95
2019-03-05T16:05:59.890Z,95
2019-03-05T16:06:36.483Z,95
2019-03-05T16:07:13.831Z,90
2019-03-05T16:07:50.516Z,90
2019-03-05T16:08:27.495Z,90
2019-03-05T16:09:05.099Z,85
2019-03-05T16:09:44.878Z,85
2019-03-05T16:10:20.078Z,80
2019-03-05T16:10:59.877Z,75
2019-03-05T16:11:36.482Z,70
2019-03-05T16:12:12.005Z,65
2019-03-05T16:12:45.115Z,65
2019-03-05T16:13:21.941Z,60
2019-03-05T16:13:59.225Z,60
2019-03-05T16:14:35.076Z,60
2019-03-05T16:15:11.732Z,60
2019-03-05T16:15:48.128Z,60
2019-03-05T16:16:21.030Z,60
2019-03-05T16:16:54.416Z,65
2019-03-05T16:17:30.946Z,65
2019-03-05T16:18:08.119Z,65
2019-03-05T16:18:41.819Z,65
2019-03-05T16:19:19.208Z,70
2019-03-05T16:19:54.811Z,70
2019-03-05T16:20:30.665Z,70
2019-03-05T16:21:08.217Z,65
2019-03-05T16:21:44.090Z,65
2019-03-05T16:22:20.579Z,65
2019-03-05T16:22:58.025Z,65
2019-03-05T16:23:31.050Z,65
2019-03-05T16:24:04.388Z,65
2019-03-05T16:24:40.206Z,65
2019-03-05T16:27:15.244Z,60
2019-03-05T16:27:48.115Z,60
2019-03-05T16:28:20.395Z,60
2019-03-05T16:28:52.431Z,60
2019-03-05T16:29:24.451Z,55
2019-03-05T16:29:58.515Z,55
2019-03-05T16:30:36.555Z,50
2019-03-05T16:31:14.188Z,50
2019-03-05T16:31:52.107Z,45
2019-03-05T16:32:29.156Z,45
2019-03-05T16:33:02.771Z,45
2019-03-05T16:33:39.815Z,45
2019-03-05T16:34:15.667Z,40
2019-03-05T16:34:48.600Z,40
2019-03-05T16:35:21.226Z,40
2019-03-05T16:35:54.974Z,35
2019-03-05T16:36:31.841Z,35
2019-03-05T16:37:08.399Z,35
2019-03-05T16:37:44.606Z,35
2019-03-05T16:38:21.410Z,35
2019-03-05T16:38:57.976Z,30
2019-03-05T16:39:34.531Z,30
2019-03-05T16:40:11.235Z,30
2019-03-05T16:40:47.274Z,30
2019-03-05T16:41:23.964Z,30
2019-03-05T16:41:59.540Z,30
2019-03-05T16:42:35.845Z,30
2019-03-05T16:43:07.839Z,30
2019-03-05T16:43:40.656Z,25
2019-03-05T16:44:12.885Z,25
2019-03-05T16:44:45.892Z,25
2019-03-05T16:45:18.011Z,25
2019-03-05T16:45:50.030Z,25
2019-03-05T16:46:22.048Z,25
2019-03-05T16:46:54.074Z,25
2019-03-05T16:47:26.093Z,20
2019-03-05T16:47:58.111Z,20
2019-03-05T16:48:30.132Z,20
2019-03-05T16:49:02.139Z,20
2019-03-05T16:49:34.130Z,20
2019-03-05T16:50:06.134Z,20
2019-03-05T16:50:38.175Z,20
2019-03-05T16:51:10.219Z,15
2019-03-05T16:51:42.205Z,15
2019-03-05T16:52:14.188Z,15
2019-03-05T16:52:46.278Z,15
2019-03-05T16:53:18.278Z,15
2019-03-05T16:53:50.288Z,15
2019-03-05T16:54:22.318Z,15
2019-03-05T16:54:54.965Z,15
2019-03-05T16:55:26.976Z,15
2019-03-05T16:56:00.059Z,15
2019-03-05T16:56:32.245Z,15
2019-03-05T16:57:04.248Z,10
2019-03-05T16:57:36.584Z,10
2019-03-05T16:58:08.575Z,10
2019-03-05T16:58:40.622Z,10
2019-03-05T16:59:12.622Z,10
2019-03-05T16:59:44.624Z,10
2019-03-05T17:00:16.618Z,10
2019-03-05T17:00:50.924Z,10
2019-03-05T17:01:22.956Z,10
2019-03-05T17:01:54.951Z,5
2019-03-05T17:02:26.993Z,5
2019-03-05T17:02:58.973Z,5
2019-03-05T17:03:30.981Z,5
2019-03-05T17:04:02.986Z,5
2019-03-05T17:04:34.998Z,5
2019-03-05T17:05:07.015Z,5
2019-03-05T17:05:39.021Z,5
2019-03-05T17:06:11.029Z,5
2019-03-05T17:06:43.041Z,5
2019-03-05T17:07:15.458Z,5
2019-03-05T17:07:47.442Z,5
2019-03-05T17:08:20.265Z,5
2019-03-05T17:08:52.474Z,5
2019-03-05T17:09:25.273Z,5
2019-03-05T17:09:57.685Z,0
2019-03-05T17:10:32.277Z,0
2019-03-05T17:11:04.554Z,0
2019-03-05T17:11:36.583Z,0
2019-03-05T17:12:08.613Z,0
2019-03-05T17:12:40.611Z,0
2019-03-05T17:13:13.192Z,0
2019-03-05T17:13:45.231Z,0
2019-03-05T17:14:17.236Z,0
2019-03-05T17:14:49.229Z,0
2019-03-05T17:15:21.250Z,0
2019-03-05T17:15:53.248Z,0
2019-03-05T17:16:25.261Z,0
2019-03-05T17:16:57.254Z,0
2019-03-05T17:17:29.244Z,0
2019-03-05T17:18:01.245Z,0
2019-03-05T17:18:33.243Z,0
2019-03-05T17:19:05.255Z,0
2019-03-05T17:19:37.248Z,0
2019-03-05T17:20:09.235Z,0
2019-03-05T17:20:42.088Z,0
2019-03-05T17:21:14.268Z,0
2019-03-05T17:21:46.806Z,0
2019-03-05T17:22:19.221Z,0
2019-03-05T17:22:51.246Z,0
2019-03-05T17:23:23.252Z,0
2019-03-05T17:23:55.240Z,0
2019-03-05T17:24:27.280Z,0
2019-03-05T17:24:59.271Z,0
2019-03-05T17:25:31.275Z,0
2019-03-05T17:26:03.308Z,0
2019-03-05T17:26:35.306Z,0
2019-03-05T17:27:07.340Z,0
2019-03-05T17:27:39.397Z,0
2019-03-05T17:28:11.442Z,0
2019-03-05T17:28:43.437Z,0
2019-03-05T17:29:15.456Z,0
2019-03-05T17:29:47.440Z,0
2019-03-05T17:30:20.095Z,0
2019-03-05T17:30:52.453Z,0
2019-03-05T17:31:24.434Z,0
2019-03-05T17:31:57.152Z,0
2019-03-05T17:32:29.524Z,0
2019-03-05T17:33:02.130Z,0
2019-03-05T17:33:34.400Z,0
2019-03-05T17:34:06.423Z,0
2019-03-05T17:34:38.479Z,0
2019-03-05T17:35:10.542Z,0
2019-03-05T17:35:42.530Z,0
2019-03-05T17:36:14.547Z,0
2019-03-05T17:36:46.539Z,0
2019-03-05T17:37:18.549Z,0
2019-03-05T17:37:50.562Z,0
2019-03-05T17:38:22.572Z,0
2019-03-05T17:38:54.577Z,0
2019-03-05T17:39:26.594Z,0
2019-03-05T17:39:58.609Z,0
2019-03-05T17:40:30.611Z,0
2019-03-05T17:41:02.656Z,0
2019-03-05T17:41:34.657Z,0
2019-03-05T17:42:06.771Z,0
2019-03-05T17:42:38.767Z,0
2019-03-05T17:43:11.580Z,0
2019-03-05T17:43:43.715Z,0
2019-03-05T17:44:16.135Z,0
2019-03-05T17:44:48.363Z,0
2019-03-05T17:45:20.384Z,0
2019-03-05T17:45:52.406Z,0
2019-03-05T17:46:24.447Z,0
2019-03-05T17:46:56.425Z,0
2019-03-05T17:47:28.432Z,0
2019-03-05T17:48:00.443Z,0
2019-03-05T17:48:32.488Z,0
2019-03-05T17:49:04.537Z,0
2019-03-05T17:49:36.536Z,0
2019-03-05T17:50:08.558Z,0
2019-03-05T17:50:40.557Z,0
2019-03-05T17:51:12.555Z,0
2019-03-05T17:51:44.556Z,0
2019-03-05T17:52:16.563Z,0
2019-03-05T17:52:48.591Z,0
2019-03-05T17:53:20.825Z,0
2019-03-05T17:53:52.842Z,0
2019-03-05T17:54:25.817Z,0
2019-03-05T17:54:57.958Z,0
2019-03-05T17:55:30.501Z,0
2019-03-05T17:56:02.799Z,0
2019-03-05T17:56:34.798Z,0
2019-03-05T17:57:09.781Z,0
2019-03-05T17:57:41.788Z,0
2019-03-05T17:58:13.782Z,0
2019-03-05T17:58:45.757Z,0
2019-03-05T17:59:17.749Z,0
2019-03-05T17:59:49.758Z,0
2019-03-05T18:00:21.755Z,0
2019-03-05T18:00:53.770Z,0